Neptune Iliad — 9HA2406 — position and weather

sailwx.info

Track history (hours):
 
Tides and Currents Weather Stations Pressure Air Temp Water Temp Dewpoint Dewpoint Depression Visibility Wind Speed Wind Dir Waves Ship Positions

Neptune Iliad

Last reported at 2018-Jan-23 22:05 UTC. Time now 2018-Jan-24 10:05 UTC.
Position N 36°46' E 012°54'.

Length 169 m; draft 8.6 m.

Type: Cargo ship. MMSI: 248549000.

Date/timePositionNaut miles runAvg speedWind from/ knotsBaromVisibWave heightAir tempDewpointWater temp
2018-Jan-23 22:05N 36°46' E 012°54'117.9
2018-Jan-23 22:00N 36°46' E 012°56'918.1
2018-Jan-23 21:31N 36°44' E 013°07'917.9
2018-Jan-23 21:00N 36°42' E 013°18'917.9
2018-Jan-23 20:30N 36°40' E 013°29'917.8
2018-Jan-23 20:01N 36°38' E 013°39'2218.1
2018-Jan-23 18:47N 36°33' E 014°06'517.8
2018-Jan-23 18:29N 36°32' E 014°13'918.0
2018-Jan-23 18:00N 36°30' E 014°23'918.0
2018-Jan-23 17:30N 36°28' E 014°34'44315.0
2018-Jan-22 11:55N 37°05' E 023°45'715.1
2018-Jan-22 11:30N 37°11' E 023°49'715.0
2018-Jan-22 11:00N 37°17' E 023°55'715.0
2018-Jan-22 10:30N 37°23' E 023°60'714.5
2018-Jan-22 10:01N 37°29' E 024°05'713.8
2018-Jan-22 09:30N 37°35' E 024°09'1013.8
2018-Jan-22 08:46N 37°43' E 024°16'613.8
2018-Jan-22 08:20N 37°47' E 024°22'513.9
2018-Jan-22 08:00N 37°50' E 024°27'714.3
2018-Jan-22 07:31N 37°55' E 024°33'25813.2
2018-Jan-21 11:58N 40°25' E 029°05'1 0.7
2018-Jan-21 11:13N 40°25' E 029°05'0 0.0
2018-Jan-21 08:37N 40°25' E 029°05'0 0.0
2018-Jan-21 08:13N 40°25' E 029°05'0 0.0
2018-Jan-20 21:39N 40°25' E 029°05'0 1.3
2018-Jan-20 21:30N 40°25' E 029°05'15 7.1
2018-Jan-20 19:26N 40°37' E 028°54'817.5
2018-Jan-20 19:00N 40°40' E 029°03'917.7
2018-Jan-20 18:30N 40°43' E 029°15'714.0
2018-Jan-20 18:00N 40°44' E 029°24'612.6
2018-Jan-20 17:30N 40°45' E 029°32'1 0.0
2018-Jan-19 18:16N 40°45' E 029°31'612.7
2018-Jan-19 17:49N 40°44' E 029°24'411.4
2018-Jan-19 17:30N 40°43' E 029°19'815.8
2018-Jan-19 17:00N 40°43' E 029°09'815.6
2018-Jan-19 16:30N 40°44' E 028°59'26513.0
2018-Jan-18 20:10N 37°55' E 024°35'315.5
2018-Jan-18 19:59N 37°53' E 024°33'1316.0
2018-Jan-18 19:10N 37°44' E 024°21'715.9
2018-Jan-18 18:42N 37°39' E 024°13'316.1
2018-Jan-18 18:30N 37°37' E 024°10'816.1
2018-Jan-18 18:00N 37°36' E 023°60'916.4
2018-Jan-18 17:27N 37°38' E 023°49'715.4
2018-Jan-18 17:00N 37°42' E 023°41'816.9
2018-Jan-18 16:30N 37°49' E 023°37'714.8
2018-Jan-18 16:00N 37°57' E 023°36'1 1.7
2018-Jan-18 15:30N 37°58' E 023°36'0 0.0
2018-Jan-18 15:00N 37°58' E 023°36'0 0.0
2018-Jan-18 14:30N 37°58' E 023°36'0 0.0
2018-Jan-18 14:00N 37°58' E 023°36'0 0.0
2018-Jan-18 13:30N 37°58' E 023°36'0 0.0
2018-Jan-18 13:00N 37°58' E 023°36'0 0.0
2018-Jan-18 12:30N 37°58' E 023°36'0 0.0
2018-Jan-18 12:00N 37°58' E 023°36'0 0.0
2018-Jan-18 11:30N 37°58' E 023°36'0 0.0
2018-Jan-18 11:00N 37°58' E 023°36'0 0.0
2018-Jan-18 10:30N 37°58' E 023°36'0 0.0
2018-Jan-18 10:00N 37°58' E 023°36'0 0.0
2018-Jan-18 09:27N 37°58' E 023°36'0 0.0
2018-Jan-18 09:00N 37°58' E 023°36'0 0.0
2018-Jan-18 08:30N 37°58' E 023°36'1 2.1
2018-Jan-18 08:00N 37°57' E 023°36'2 3.5
2018-Jan-18 07:30N 37°55' E 023°36'4 8.0
2018-Jan-18 07:00N 37°51' E 023°34'1 2.1
2018-Jan-18 06:30N 37°50' E 023°33'1 2.5
2018-Jan-18 06:00N 37°51' E 023°34'1 1.6
2018-Jan-18 05:30N 37°50' E 023°35'0 0.7
2018-Jan-18 05:00N 37°51' E 023°35'1 2.4
2018-Jan-18 04:30N 37°52' E 023°34'1 1.7
2018-Jan-18 04:00N 37°52' E 023°35'3 6.5
2018-Jan-18 03:30N 37°51' E 023°39'510.2
2018-Jan-18 03:00N 37°46' E 023°42'510.1
2018-Jan-18 02:30N 37°41' E 023°44'510.2
2018-Jan-18 02:00N 37°36' E 023°45'611.0
2018-Jan-18 01:30N 37°31' E 023°43'611.1
2018-Jan-18 01:00N 37°26' E 023°40'1711.0
2018-Jan-17 23:28N 37°10' E 023°33'  
Track history (hours):
 
Tides and Currents Weather Stations Pressure Air Temp Water Temp Dewpoint Dewpoint Depression Visibility Wind Speed Wind Dir Waves Ship Positions

Neptune Iliad

Last reported at 2018-Jan-23 22:05 UTC. Time now 2018-Jan-24 10:05 UTC.
Position N 36°46' E 012°54'.

Length 169 m; draft 8.6 m.

Type: Cargo ship. MMSI: 248549000.

Date/timePositionNaut miles runAvg speedWind from/ knotsBaromVisibWave heightAir tempDewpointWater temp
2018-Jan-23 22:05N 36°46' E 012°54'117.9
2018-Jan-23 22:00N 36°46' E 012°56'918.1
2018-Jan-23 21:31N 36°44' E 013°07'917.9
2018-Jan-23 21:00N 36°42' E 013°18'917.9
2018-Jan-23 20:30N 36°40' E 013°29'917.8
2018-Jan-23 20:01N 36°38' E 013°39'2218.1
2018-Jan-23 18:47N 36°33' E 014°06'517.8
2018-Jan-23 18:29N 36°32' E 014°13'918.0
2018-Jan-23 18:00N 36°30' E 014°23'918.0
2018-Jan-23 17:30N 36°28' E 014°34'44315.0
2018-Jan-22 11:55N 37°05' E 023°45'715.1
2018-Jan-22 11:30N 37°11' E 023°49'715.0
2018-Jan-22 11:00N 37°17' E 023°55'715.0
2018-Jan-22 10:30N 37°23' E 023°60'714.5
2018-Jan-22 10:01N 37°29' E 024°05'713.8
2018-Jan-22 09:30N 37°35' E 024°09'1013.8
2018-Jan-22 08:46N 37°43' E 024°16'613.8
2018-Jan-22 08:20N 37°47' E 024°22'513.9
2018-Jan-22 08:00N 37°50' E 024°27'714.3
2018-Jan-22 07:31N 37°55' E 024°33'25813.2
2018-Jan-21 11:58N 40°25' E 029°05'1 0.7
2018-Jan-21 11:13N 40°25' E 029°05'0 0.0
2018-Jan-21 08:37N 40°25' E 029°05'0 0.0
2018-Jan-21 08:13N 40°25' E 029°05'0 0.0
2018-Jan-20 21:39N 40°25' E 029°05'0 1.3
2018-Jan-20 21:30N 40°25' E 029°05'15 7.1
2018-Jan-20 19:26N 40°37' E 028°54'817.5
2018-Jan-20 19:00N 40°40' E 029°03'917.7
2018-Jan-20 18:30N 40°43' E 029°15'714.0
2018-Jan-20 18:00N 40°44' E 029°24'612.6
2018-Jan-20 17:30N 40°45' E 029°32'1 0.0
2018-Jan-19 18:16N 40°45' E 029°31'612.7
2018-Jan-19 17:49N 40°44' E 029°24'411.4
2018-Jan-19 17:30N 40°43' E 029°19'815.8
2018-Jan-19 17:00N 40°43' E 029°09'815.6
2018-Jan-19 16:30N 40°44' E 028°59'26513.0
2018-Jan-18 20:10N 37°55' E 024°35'315.5
2018-Jan-18 19:59N 37°53' E 024°33'1316.0
2018-Jan-18 19:10N 37°44' E 024°21'715.9
2018-Jan-18 18:42N 37°39' E 024°13'316.1
2018-Jan-18 18:30N 37°37' E 024°10'816.1
2018-Jan-18 18:00N 37°36' E 023°60'916.4
2018-Jan-18 17:27N 37°38' E 023°49'715.4
2018-Jan-18 17:00N 37°42' E 023°41'816.9
2018-Jan-18 16:30N 37°49' E 023°37'714.8
2018-Jan-18 16:00N 37°57' E 023°36'1 1.7
2018-Jan-18 15:30N 37°58' E 023°36'0 0.0
2018-Jan-18 15:00N 37°58' E 023°36'0 0.0
2018-Jan-18 14:30N 37°58' E 023°36'0 0.0
2018-Jan-18 14:00N 37°58' E 023°36'0 0.0
2018-Jan-18 13:30N 37°58' E 023°36'0 0.0
2018-Jan-18 13:00N 37°58' E 023°36'0 0.0
2018-Jan-18 12:30N 37°58' E 023°36'0 0.0
2018-Jan-18 12:00N 37°58' E 023°36'0 0.0
2018-Jan-18 11:30N 37°58' E 023°36'0 0.0
2018-Jan-18 11:00N 37°58' E 023°36'0 0.0
2018-Jan-18 10:30N 37°58' E 023°36'0 0.0
2018-Jan-18 10:00N 37°58' E 023°36'0 0.0
2018-Jan-18 09:27N 37°58' E 023°36'0 0.0
2018-Jan-18 09:00N 37°58' E 023°36'0 0.0
2018-Jan-18 08:30N 37°58' E 023°36'1 2.1
2018-Jan-18 08:00N 37°57' E 023°36'2 3.5
2018-Jan-18 07:30N 37°55' E 023°36'4 8.0
2018-Jan-18 07:00N 37°51' E 023°34'1 2.1
2018-Jan-18 06:30N 37°50' E 023°33'1 2.5
2018-Jan-18 06:00N 37°51' E 023°34'1 1.6
2018-Jan-18 05:30N 37°50' E 023°35'0 0.7
2018-Jan-18 05:00N 37°51' E 023°35'1 2.4
2018-Jan-18 04:30N 37°52' E 023°34'1 1.7
2018-Jan-18 04:00N 37°52' E 023°35'3 6.5
2018-Jan-18 03:30N 37°51' E 023°39'510.2
2018-Jan-18 03:00N 37°46' E 023°42'510.1
2018-Jan-18 02:30N 37°41' E 023°44'510.2
2018-Jan-18 02:00N 37°36' E 023°45'611.0
2018-Jan-18 01:30N 37°31' E 023°43'611.1
2018-Jan-18 01:00N 37°26' E 023°40'1711.0
2018-Jan-17 23:28N 37°10' E 023°33'  

Dump ship's entire track history